sensor_id;sensor_type;location;lat;lon;timestamp;P1;durP1;ratioP1;P2;durP2;ratioP2
46729;SDS011;32476;50.002;11.854;2023-04-08T00:03:02;16.77;;;9.87;;
46729;SDS011;32476;50.002;11.854;2023-04-08T00:05:30;15.67;;;9.13;;
46729;SDS011;32476;50.002;11.854;2023-04-08T00:07:56;13.53;;;9.20;;
46729;SDS011;32476;50.002;11.854;2023-04-08T00:10:21;13.87;;;8.60;;
46729;SDS011;32476;50.002;11.854;2023-04-08T00:12:49;18.30;;;9.70;;
46729;SDS011;32476;50.002;11.854;2023-04-08T00:15:15;18.40;;;9.47;;
46729;SDS011;32476;50.002;11.854;2023-04-08T00:17:41;16.33;;;9.23;;
46729;SDS011;32476;50.002;11.854;2023-04-08T00:20:08;15.07;;;9.07;;
46729;SDS011;32476;50.002;11.854;2023-04-08T00:22:34;15.97;;;8.77;;
46729;SDS011;32476;50.002;11.854;2023-04-08T00:25:00;16.03;;;9.40;;
46729;SDS011;32476;50.002;11.854;2023-04-08T00:27:28;16.17;;;9.13;;
46729;SDS011;32476;50.002;11.854;2023-04-08T00:29:54;16.40;;;8.73;;
46729;SDS011;32476;50.002;11.854;2023-04-08T00:32:20;13.97;;;8.17;;
46729;SDS011;32476;50.002;11.854;2023-04-08T00:34:47;13.67;;;8.10;;
46729;SDS011;32476;50.002;11.854;2023-04-08T00:37:13;14.80;;;8.13;;
46729;SDS011;32476;50.002;11.854;2023-04-08T00:39:39;16.00;;;7.57;;
46729;SDS011;32476;50.002;11.854;2023-04-08T00:42:07;14.00;;;7.97;;
46729;SDS011;32476;50.002;11.854;2023-04-08T00:44:33;10.93;;;7.23;;
46729;SDS011;32476;50.002;11.854;2023-04-08T00:46:59;12.43;;;7.47;;
46729;SDS011;32476;50.002;11.854;2023-04-08T00:49:27;11.30;;;6.93;;
46729;SDS011;32476;50.002;11.854;2023-04-08T00:51:53;12.20;;;6.50;;
46729;SDS011;32476;50.002;11.854;2023-04-08T00:54:19;12.73;;;6.50;;
46729;SDS011;32476;50.002;11.854;2023-04-08T00:56:47;10.20;;;6.17;;
46729;SDS011;32476;50.002;11.854;2023-04-08T00:59:13;11.83;;;6.20;;
46729;SDS011;32476;50.002;11.854;2023-04-08T01:01:54;11.67;;;6.13;;
46729;SDS011;32476;50.002;11.854;2023-04-08T01:04:32;9.27;;;6.33;;
46729;SDS011;32476;50.002;11.854;2023-04-08T01:07:16;11.53;;;5.90;;
46729;SDS011;32476;50.002;11.854;2023-04-08T01:09:47;10.60;;;6.30;;
46729;SDS011;32476;50.002;11.854;2023-04-08T01:12:36;13.13;;;6.90;;
46729;SDS011;32476;50.002;11.854;2023-04-08T01:15:10;11.83;;;7.03;;
46729;SDS011;32476;50.002;11.854;2023-04-08T01:17:36;13.40;;;7.80;;
46729;SDS011;32476;50.002;11.854;2023-04-08T01:20:03;11.57;;;7.23;;
46729;SDS011;32476;50.002;11.854;2023-04-08T01:25:09;13.80;;;7.73;;
46729;SDS011;32476;50.002;11.854;2023-04-08T01:27:42;12.27;;;8.17;;
46729;SDS011;32476;50.002;11.854;2023-04-08T01:30:08;11.27;;;7.70;;
46729;SDS011;32476;50.002;11.854;2023-04-08T01:32:36;14.27;;;7.40;;
46729;SDS011;32476;50.002;11.854;2023-04-08T01:35:05;14.63;;;8.13;;
46729;SDS011;32476;50.002;11.854;2023-04-08T01:37:33;14.53;;;8.10;;
46729;SDS011;32476;50.002;11.854;2023-04-08T01:40:00;13.40;;;8.23;;
46729;SDS011;32476;50.002;11.854;2023-04-08T01:42:28;12.07;;;7.80;;
46729;SDS011;32476;50.002;11.854;2023-04-08T01:44:57;14.20;;;8.20;;
46729;SDS011;32476;50.002;11.854;2023-04-08T01:47:24;12.20;;;7.50;;
46729;SDS011;32476;50.002;11.854;2023-04-08T01:49:53;12.43;;;8.00;;
46729;SDS011;32476;50.002;11.854;2023-04-08T01:52:21;12.90;;;8.40;;
46729;SDS011;32476;50.002;11.854;2023-04-08T01:54:49;10.30;;;7.03;;
46729;SDS011;32476;50.002;11.854;2023-04-08T01:57:20;13.40;;;8.10;;
46729;SDS011;32476;50.002;11.854;2023-04-08T01:59:49;15.67;;;8.33;;
46729;SDS011;32476;50.002;11.854;2023-04-08T02:02:19;14.03;;;7.83;;
46729;SDS011;32476;50.002;11.854;2023-04-08T02:04:46;11.57;;;7.80;;
46729;SDS011;32476;50.002;11.854;2023-04-08T02:07:12;13.30;;;8.57;;
46729;SDS011;32476;50.002;11.854;2023-04-08T02:09:40;10.20;;;6.80;;
46729;SDS011;32476;50.002;11.854;2023-04-08T02:12:06;9.07;;;5.20;;
46729;SDS011;32476;50.002;11.854;2023-04-08T02:14:32;10.33;;;6.60;;
46729;SDS011;32476;50.002;11.854;2023-04-08T02:17:10;8.37;;;5.50;;
46729;SDS011;32476;50.002;11.854;2023-04-08T02:20:13;8.97;;;3.93;;
46729;SDS011;32476;50.002;11.854;2023-04-08T02:22:37;7.40;;;4.60;;
46729;SDS011;32476;50.002;11.854;2023-04-08T02:25:14;7.53;;;3.33;;
46729;SDS011;32476;50.002;11.854;2023-04-08T02:27:44;5.67;;;3.43;;
46729;SDS011;32476;50.002;11.854;2023-04-08T02:30:12;4.53;;;3.33;;
46729;SDS011;32476;50.002;11.854;2023-04-08T02:32:40;7.47;;;4.20;;
46729;SDS011;32476;50.002;11.854;2023-04-08T02:35:09;5.70;;;3.63;;
46729;SDS011;32476;50.002;11.854;2023-04-08T02:37:36;7.00;;;4.40;;
46729;SDS011;32476;50.002;11.854;2023-04-08T02:40:02;8.40;;;4.70;;
46729;SDS011;32476;50.002;11.854;2023-04-08T02:42:47;7.77;;;4.87;;
46729;SDS011;32476;50.002;11.854;2023-04-08T02:45:13;6.60;;;4.93;;
46729;SDS011;32476;50.002;11.854;2023-04-08T02:47:39;10.03;;;5.60;;
46729;SDS011;32476;50.002;11.854;2023-04-08T02:50:06;9.57;;;5.60;;
46729;SDS011;32476;50.002;11.854;2023-04-08T02:52:32;10.40;;;6.53;;
46729;SDS011;32476;50.002;11.854;2023-04-08T02:54:58;10.27;;;7.13;;
46729;SDS011;32476;50.002;11.854;2023-04-08T02:57:25;10.50;;;7.20;;
46729;SDS011;32476;50.002;11.854;2023-04-08T02:59:51;12.90;;;7.33;;
46729;SDS011;32476;50.002;11.854;2023-04-08T03:02:17;10.27;;;6.87;;
46729;SDS011;32476;50.002;11.854;2023-04-08T03:04:44;10.43;;;6.80;;
46729;SDS011;32476;50.002;11.854;2023-04-08T03:07:10;9.73;;;6.70;;
46729;SDS011;32476;50.002;11.854;2023-04-08T03:09:36;10.93;;;7.23;;
46729;SDS011;32476;50.002;11.854;2023-04-08T03:12:03;8.87;;;6.63;;
46729;SDS011;32476;50.002;11.854;2023-04-08T03:14:29;13.43;;;7.43;;
46729;SDS011;32476;50.002;11.854;2023-04-08T03:16:55;10.27;;;6.83;;
46729;SDS011;32476;50.002;11.854;2023-04-08T03:19:22;11.00;;;7.43;;
46729;SDS011;32476;50.002;11.854;2023-04-08T03:21:48;11.83;;;7.57;;
46729;SDS011;32476;50.002;11.854;2023-04-08T03:24:13;9.67;;;6.47;;
46729;SDS011;32476;50.002;11.854;2023-04-08T03:26:41;9.43;;;6.63;;
46729;SDS011;32476;50.002;11.854;2023-04-08T03:29:07;10.83;;;6.40;;
46729;SDS011;32476;50.002;11.854;2023-04-08T03:31:32;6.67;;;5.07;;
46729;SDS011;32476;50.002;11.854;2023-04-08T03:34:00;7.30;;;5.10;;
46729;SDS011;32476;50.002;11.854;2023-04-08T03:36:26;7.47;;;5.13;;
46729;SDS011;32476;50.002;11.854;2023-04-08T03:38:51;8.00;;;5.43;;
46729;SDS011;32476;50.002;11.854;2023-04-08T03:41:19;5.70;;;4.47;;
46729;SDS011;32476;50.002;11.854;2023-04-08T03:43:45;5.73;;;4.30;;
46729;SDS011;32476;50.002;11.854;2023-04-08T03:46:11;6.07;;;3.93;;
46729;SDS011;32476;50.002;11.854;2023-04-08T03:48:38;6.67;;;4.60;;
46729;SDS011;32476;50.002;11.854;2023-04-08T03:51:04;7.10;;;4.27;;
46729;SDS011;32476;50.002;11.854;2023-04-08T03:53:30;5.07;;;3.77;;
46729;SDS011;32476;50.002;11.854;2023-04-08T03:55:57;7.37;;;4.83;;
46729;SDS011;32476;50.002;11.854;2023-04-08T03:58:23;5.90;;;4.27;;
46729;SDS011;32476;50.002;11.854;2023-04-08T04:00:49;5.33;;;4.00;;
46729;SDS011;32476;50.002;11.854;2023-04-08T04:03:19;5.50;;;3.90;;
46729;SDS011;32476;50.002;11.854;2023-04-08T04:05:45;5.73;;;3.80;;
46729;SDS011;32476;50.002;11.854;2023-04-08T04:08:11;8.53;;;4.37;;
46729;SDS011;32476;50.002;11.854;2023-04-08T04:10:38;5.70;;;4.10;;
46729;SDS011;32476;50.002;11.854;2023-04-08T04:13:04;6.60;;;4.33;;
46729;SDS011;32476;50.002;11.854;2023-04-08T04:15:30;5.40;;;3.90;;
46729;SDS011;32476;50.002;11.854;2023-04-08T04:17:57;6.27;;;4.47;;
46729;SDS011;32476;50.002;11.854;2023-04-08T04:20:23;8.53;;;5.20;;
46729;SDS011;32476;50.002;11.854;2023-04-08T04:22:50;6.67;;;4.17;;
46729;SDS011;32476;50.002;11.854;2023-04-08T04:25:18;5.83;;;3.80;;
46729;SDS011;32476;50.002;11.854;2023-04-08T04:27:44;5.97;;;4.13;;
46729;SDS011;32476;50.002;11.854;2023-04-08T04:30:09;4.73;;;3.70;;
46729;SDS011;32476;50.002;11.854;2023-04-08T04:32:41;5.30;;;3.87;;
46729;SDS011;32476;50.002;11.854;2023-04-08T04:35:10;4.93;;;3.63;;
46729;SDS011;32476;50.002;11.854;2023-04-08T04:37:36;5.30;;;3.63;;
46729;SDS011;32476;50.002;11.854;2023-04-08T04:40:04;4.27;;;3.20;;
46729;SDS011;32476;50.002;11.854;2023-04-08T04:42:31;4.50;;;3.27;;
46729;SDS011;32476;50.002;11.854;2023-04-08T04:44:57;4.37;;;3.13;;
46729;SDS011;32476;50.002;11.854;2023-04-08T04:47:25;3.80;;;2.80;;
46729;SDS011;32476;50.002;11.854;2023-04-08T04:49:51;3.40;;;2.50;;
46729;SDS011;32476;50.002;11.854;2023-04-08T04:52:16;3.57;;;2.57;;
46729;SDS011;32476;50.002;11.854;2023-04-08T04:54:44;3.17;;;2.47;;
46729;SDS011;32476;50.002;11.854;2023-04-08T04:57:10;3.27;;;2.77;;
46729;SDS011;32476;50.002;11.854;2023-04-08T04:59:36;3.57;;;2.30;;
46729;SDS011;32476;50.002;11.854;2023-04-08T05:02:03;3.90;;;3.10;;
46729;SDS011;32476;50.002;11.854;2023-04-08T05:04:29;3.27;;;2.60;;
46729;SDS011;32476;50.002;11.854;2023-04-08T05:06:57;4.03;;;2.77;;
46729;SDS011;32476;50.002;11.854;2023-04-08T05:09:25;3.73;;;3.00;;
46729;SDS011;32476;50.002;11.854;2023-04-08T05:11:51;4.70;;;3.03;;
46729;SDS011;32476;50.002;11.854;2023-04-08T05:14:17;3.53;;;2.67;;
46729;SDS011;32476;50.002;11.854;2023-04-08T05:16:44;4.07;;;2.70;;
46729;SDS011;32476;50.002;11.854;2023-04-08T05:19:10;3.20;;;2.53;;
46729;SDS011;32476;50.002;11.854;2023-04-08T05:21:36;3.80;;;2.60;;
46729;SDS011;32476;50.002;11.854;2023-04-08T05:24:03;3.97;;;2.63;;
46729;SDS011;32476;50.002;11.854;2023-04-08T05:26:29;4.63;;;2.93;;
46729;SDS011;32476;50.002;11.854;2023-04-08T05:28:55;3.93;;;2.90;;
46729;SDS011;32476;50.002;11.854;2023-04-08T05:31:22;5.83;;;3.20;;
46729;SDS011;32476;50.002;11.854;2023-04-08T05:33:48;4.23;;;3.10;;
46729;SDS011;32476;50.002;11.854;2023-04-08T05:36:14;5.10;;;3.17;;
46729;SDS011;32476;50.002;11.854;2023-04-08T05:38:41;4.23;;;3.00;;
46729;SDS011;32476;50.002;11.854;2023-04-08T05:41:08;4.07;;;3.00;;
46729;SDS011;32476;50.002;11.854;2023-04-08T05:43:34;4.40;;;3.13;;
46729;SDS011;32476;50.002;11.854;2023-04-08T05:46:05;4.33;;;3.23;;
46729;SDS011;32476;50.002;11.854;2023-04-08T05:48:32;6.33;;;3.17;;
46729;SDS011;32476;50.002;11.854;2023-04-08T05:50:58;6.03;;;3.90;;
46729;SDS011;32476;50.002;11.854;2023-04-08T05:53:26;7.10;;;4.40;;
46729;SDS011;32476;50.002;11.854;2023-04-08T05:55:51;12.87;;;7.50;;
46729;SDS011;32476;50.002;11.854;2023-04-08T05:58:17;9.13;;;6.43;;
46729;SDS011;32476;50.002;11.854;2023-04-08T06:00:45;10.03;;;6.23;;
46729;SDS011;32476;50.002;11.854;2023-04-08T06:03:11;8.07;;;5.13;;
46729;SDS011;32476;50.002;11.854;2023-04-08T06:05:36;7.13;;;5.10;;
46729;SDS011;32476;50.002;11.854;2023-04-08T06:08:04;9.67;;;6.20;;
46729;SDS011;32476;50.002;11.854;2023-04-08T06:10:30;6.77;;;4.73;;
46729;SDS011;32476;50.002;11.854;2023-04-08T06:12:55;8.40;;;5.27;;
46729;SDS011;32476;50.002;11.854;2023-04-08T06:15:23;8.30;;;5.50;;
46729;SDS011;32476;50.002;11.854;2023-04-08T06:17:50;14.60;;;5.43;;
46729;SDS011;32476;50.002;11.854;2023-04-08T06:20:16;13.50;;;5.77;;
46729;SDS011;32476;50.002;11.854;2023-04-08T06:22:43;12.40;;;7.73;;
46729;SDS011;32476;50.002;11.854;2023-04-08T06:25:09;10.70;;;6.20;;
46729;SDS011;32476;50.002;11.854;2023-04-08T06:27:34;8.40;;;5.40;;
46729;SDS011;32476;50.002;11.854;2023-04-08T06:30:02;8.60;;;5.20;;
46729;SDS011;32476;50.002;11.854;2023-04-08T06:32:28;14.00;;;6.10;;
46729;SDS011;32476;50.002;11.854;2023-04-08T06:34:54;8.33;;;5.57;;
46729;SDS011;32476;50.002;11.854;2023-04-08T06:37:21;10.60;;;5.40;;
46729;SDS011;32476;50.002;11.854;2023-04-08T06:39:47;8.57;;;5.30;;
46729;SDS011;32476;50.002;11.854;2023-04-08T06:42:12;8.03;;;5.03;;
46729;SDS011;32476;50.002;11.854;2023-04-08T06:44:40;8.47;;;5.70;;
46729;SDS011;32476;50.002;11.854;2023-04-08T06:47:05;8.17;;;4.90;;
46729;SDS011;32476;50.002;11.854;2023-04-08T06:49:31;8.07;;;5.50;;
46729;SDS011;32476;50.002;11.854;2023-04-08T06:51:58;13.70;;;8.43;;
46729;SDS011;32476;50.002;11.854;2023-04-08T06:54:24;8.73;;;5.87;;
46729;SDS011;32476;50.002;11.854;2023-04-08T06:56:50;7.57;;;4.90;;
46729;SDS011;32476;50.002;11.854;2023-04-08T06:59:17;8.93;;;5.57;;
46729;SDS011;32476;50.002;11.854;2023-04-08T07:01:43;6.50;;;4.37;;
46729;SDS011;32476;50.002;11.854;2023-04-08T07:04:09;6.77;;;4.50;;
46729;SDS011;32476;50.002;11.854;2023-04-08T07:06:37;13.73;;;8.13;;
46729;SDS011;32476;50.002;11.854;2023-04-08T07:09:03;19.87;;;11.10;;
46729;SDS011;32476;50.002;11.854;2023-04-08T07:11:29;7.07;;;4.90;;
46729;SDS011;32476;50.002;11.854;2023-04-08T07:13:56;7.13;;;4.73;;
46729;SDS011;32476;50.002;11.854;2023-04-08T07:16:23;11.07;;;7.30;;
46729;SDS011;32476;50.002;11.854;2023-04-08T07:18:49;8.30;;;5.17;;
46729;SDS011;32476;50.002;11.854;2023-04-08T07:21:17;8.07;;;5.73;;
46729;SDS011;32476;50.002;11.854;2023-04-08T07:23:43;9.37;;;5.63;;
46729;SDS011;32476;50.002;11.854;2023-04-08T07:26:09;9.63;;;6.30;;
46729;SDS011;32476;50.002;11.854;2023-04-08T07:28:36;11.47;;;7.13;;
46729;SDS011;32476;50.002;11.854;2023-04-08T07:31:12;6.57;;;4.10;;
46729;SDS011;32476;50.002;11.854;2023-04-08T07:33:43;9.53;;;6.17;;
46729;SDS011;32476;50.002;11.854;2023-04-08T07:36:10;11.20;;;7.27;;
46729;SDS011;32476;50.002;11.854;2023-04-08T07:38:37;11.00;;;6.73;;
46729;SDS011;32476;50.002;11.854;2023-04-08T07:41:05;11.93;;;7.70;;
46729;SDS011;32476;50.002;11.854;2023-04-08T07:43:31;6.17;;;4.27;;
46729;SDS011;32476;50.002;11.854;2023-04-08T07:46:02;4.67;;;3.60;;
46729;SDS011;32476;50.002;11.854;2023-04-08T07:48:30;6.47;;;3.83;;
46729;SDS011;32476;50.002;11.854;2023-04-08T07:50:57;6.70;;;3.63;;
46729;SDS011;32476;50.002;11.854;2023-04-08T07:53:22;6.17;;;4.10;;
46729;SDS011;32476;50.002;11.854;2023-04-08T07:55:52;6.30;;;4.30;;
46729;SDS011;32476;50.002;11.854;2023-04-08T07:58:18;5.17;;;3.70;;
46729;SDS011;32476;50.002;11.854;2023-04-08T08:00:43;5.73;;;4.27;;
46729;SDS011;32476;50.002;11.854;2023-04-08T08:03:11;5.43;;;3.80;;
46729;SDS011;32476;50.002;11.854;2023-04-08T08:05:36;5.43;;;3.90;;
46729;SDS011;32476;50.002;11.854;2023-04-08T08:08:02;8.27;;;4.70;;
46729;SDS011;32476;50.002;11.854;2023-04-08T08:10:30;4.93;;;3.70;;
46729;SDS011;32476;50.002;11.854;2023-04-08T08:12:56;11.13;;;7.57;;
46729;SDS011;32476;50.002;11.854;2023-04-08T08:15:21;8.03;;;5.37;;
46729;SDS011;32476;50.002;11.854;2023-04-08T08:17:49;14.23;;;8.80;;
46729;SDS011;32476;50.002;11.854;2023-04-08T08:20:15;5.23;;;3.30;;
46729;SDS011;32476;50.002;11.854;2023-04-08T08:22:41;14.93;;;9.70;;
46729;SDS011;32476;50.002;11.854;2023-04-08T08:25:08;4.53;;;3.20;;
46729;SDS011;32476;50.002;11.854;2023-04-08T08:27:34;8.57;;;5.50;;
46729;SDS011;32476;50.002;11.854;2023-04-08T08:30:01;4.93;;;3.17;;
46729;SDS011;32476;50.002;11.854;2023-04-08T08:32:29;4.50;;;3.57;;
46729;SDS011;32476;50.002;11.854;2023-04-08T08:34:55;7.83;;;4.97;;
46729;SDS011;32476;50.002;11.854;2023-04-08T08:37:21;7.73;;;5.27;;
46729;SDS011;32476;50.002;11.854;2023-04-08T08:39:49;9.40;;;6.00;;
46729;SDS011;32476;50.002;11.854;2023-04-08T08:42:21;6.30;;;4.33;;
46729;SDS011;32476;50.002;11.854;2023-04-08T08:44:50;9.93;;;6.17;;
46729;SDS011;32476;50.002;11.854;2023-04-08T08:47:16;15.90;;;8.07;;
46729;SDS011;32476;50.002;11.854;2023-04-08T08:49:42;6.33;;;4.37;;
46729;SDS011;32476;50.002;11.854;2023-04-08T08:52:14;8.43;;;5.67;;
46729;SDS011;32476;50.002;11.854;2023-04-08T08:54:40;8.07;;;5.00;;
46729;SDS011;32476;50.002;11.854;2023-04-08T08:57:15;12.80;;;6.73;;
46729;SDS011;32476;50.002;11.854;2023-04-08T08:59:45;6.37;;;4.83;;
46729;SDS011;32476;50.002;11.854;2023-04-08T09:02:30;6.70;;;4.77;;
46729;SDS011;32476;50.002;11.854;2023-04-08T09:05:02;6.20;;;4.60;;
46729;SDS011;32476;50.002;11.854;2023-04-08T09:07:29;5.37;;;4.27;;
46729;SDS011;32476;50.002;11.854;2023-04-08T09:10:00;6.03;;;4.00;;
46729;SDS011;32476;50.002;11.854;2023-04-08T09:12:26;6.20;;;4.03;;
46729;SDS011;32476;50.002;11.854;2023-04-08T09:15:08;5.83;;;3.70;;
46729;SDS011;32476;50.002;11.854;2023-04-08T09:17:39;6.83;;;4.10;;
46729;SDS011;32476;50.002;11.854;2023-04-08T09:20:08;5.40;;;4.00;;
46729;SDS011;32476;50.002;11.854;2023-04-08T09:22:53;5.00;;;4.00;;
46729;SDS011;32476;50.002;11.854;2023-04-08T09:25:21;5.37;;;3.77;;
46729;SDS011;32476;50.002;11.854;2023-04-08T09:27:51;4.70;;;3.73;;
46729;SDS011;32476;50.002;11.854;2023-04-08T09:30:18;4.73;;;3.30;;
46729;SDS011;32476;50.002;11.854;2023-04-08T09:32:49;5.43;;;3.40;;
46729;SDS011;32476;50.002;11.854;2023-04-08T09:35:18;5.77;;;3.80;;
46729;SDS011;32476;50.002;11.854;2023-04-08T09:37:44;4.70;;;3.40;;
46729;SDS011;32476;50.002;11.854;2023-04-08T09:40:11;6.40;;;4.00;;
46729;SDS011;32476;50.002;11.854;2023-04-08T09:42:40;5.87;;;4.00;;
46729;SDS011;32476;50.002;11.854;2023-04-08T09:45:08;4.80;;;3.37;;
46729;SDS011;32476;50.002;11.854;2023-04-08T09:47:43;8.37;;;5.20;;
46729;SDS011;32476;50.002;11.854;2023-04-08T09:50:31;6.07;;;4.03;;
46729;SDS011;32476;50.002;11.854;2023-04-08T09:53:08;4.90;;;3.23;;
46729;SDS011;32476;50.002;11.854;2023-04-08T09:55:45;6.60;;;3.40;;
46729;SDS011;32476;50.002;11.854;2023-04-08T09:58:15;5.97;;;4.03;;
46729;SDS011;32476;50.002;11.854;2023-04-08T10:00:48;6.97;;;4.20;;
46729;SDS011;32476;50.002;11.854;2023-04-08T10:05:56;6.57;;;3.80;;
46729;SDS011;32476;50.002;11.854;2023-04-08T10:08:25;5.60;;;3.20;;
46729;SDS011;32476;50.002;11.854;2023-04-08T10:10:52;5.17;;;3.47;;
46729;SDS011;32476;50.002;11.854;2023-04-08T10:13:20;5.60;;;4.00;;
46729;SDS011;32476;50.002;11.854;2023-04-08T10:15:48;4.30;;;3.37;;
46729;SDS011;32476;50.002;11.854;2023-04-08T10:20:44;6.90;;;4.60;;
46729;SDS011;32476;50.002;11.854;2023-04-08T10:23:11;6.27;;;4.10;;
46729;SDS011;32476;50.002;11.854;2023-04-08T10:25:45;8.20;;;6.20;;
46729;SDS011;32476;50.002;11.854;2023-04-08T10:30:42;4.50;;;3.20;;
46729;SDS011;32476;50.002;11.854;2023-04-08T10:33:09;4.20;;;2.57;;
46729;SDS011;32476;50.002;11.854;2023-04-08T10:38:39;3.47;;;2.60;;
46729;SDS011;32476;50.002;11.854;2023-04-08T10:41:10;3.83;;;2.40;;
46729;SDS011;32476;50.002;11.854;2023-04-08T10:43:38;5.00;;;2.50;;
46729;SDS011;32476;50.002;11.854;2023-04-08T10:46:04;4.40;;;3.13;;
46729;SDS011;32476;50.002;11.854;2023-04-08T10:48:32;4.73;;;2.73;;
46729;SDS011;32476;50.002;11.854;2023-04-08T10:50:58;3.67;;;2.60;;
46729;SDS011;32476;50.002;11.854;2023-04-08T10:53:28;14.03;;;5.10;;
46729;SDS011;32476;50.002;11.854;2023-04-08T10:56:06;3.60;;;2.97;;
46729;SDS011;32476;50.002;11.854;2023-04-08T10:58:35;4.83;;;3.23;;
46729;SDS011;32476;50.002;11.854;2023-04-08T11:01:13;4.50;;;3.10;;
46729;SDS011;32476;50.002;11.854;2023-04-08T11:03:38;4.67;;;3.13;;
46729;SDS011;32476;50.002;11.854;2023-04-08T11:06:06;5.73;;;3.70;;
46729;SDS011;32476;50.002;11.854;2023-04-08T11:08:34;5.47;;;3.70;;
46729;SDS011;32476;50.002;11.854;2023-04-08T11:11:01;5.53;;;3.33;;
46729;SDS011;32476;50.002;11.854;2023-04-08T11:13:28;5.23;;;3.37;;
46729;SDS011;32476;50.002;11.854;2023-04-08T11:15:57;5.83;;;3.57;;
46729;SDS011;32476;50.002;11.854;2023-04-08T11:18:24;4.47;;;3.30;;
46729;SDS011;32476;50.002;11.854;2023-04-08T11:20:50;5.00;;;3.40;;
46729;SDS011;32476;50.002;11.854;2023-04-08T11:23:19;5.60;;;3.83;;
46729;SDS011;32476;50.002;11.854;2023-04-08T11:25:47;4.83;;;3.17;;
46729;SDS011;32476;50.002;11.854;2023-04-08T11:28:13;5.60;;;3.50;;
46729;SDS011;32476;50.002;11.854;2023-04-08T11:30:41;6.90;;;4.80;;
46729;SDS011;32476;50.002;11.854;2023-04-08T11:33:07;5.73;;;3.73;;
46729;SDS011;32476;50.002;11.854;2023-04-08T11:35:33;5.40;;;3.90;;
46729;SDS011;32476;50.002;11.854;2023-04-08T11:38:05;4.90;;;3.30;;
46729;SDS011;32476;50.002;11.854;2023-04-08T11:40:30;6.47;;;3.97;;
46729;SDS011;32476;50.002;11.854;2023-04-08T11:42:56;4.20;;;3.40;;
46729;SDS011;32476;50.002;11.854;2023-04-08T11:45:24;5.67;;;3.67;;
46729;SDS011;32476;50.002;11.854;2023-04-08T11:47:50;5.37;;;3.50;;
46729;SDS011;32476;50.002;11.854;2023-04-08T11:50:25;4.73;;;2.73;;
46729;SDS011;32476;50.002;11.854;2023-04-08T11:52:55;4.13;;;2.90;;
46729;SDS011;32476;50.002;11.854;2023-04-08T11:55:25;8.90;;;5.83;;
46729;SDS011;32476;50.002;11.854;2023-04-08T11:57:52;5.67;;;3.90;;
46729;SDS011;32476;50.002;11.854;2023-04-08T12:00:21;3.60;;;2.90;;
46729;SDS011;32476;50.002;11.854;2023-04-08T12:02:47;3.83;;;2.70;;
46729;SDS011;32476;50.002;11.854;2023-04-08T12:05:15;10.90;;;7.67;;
46729;SDS011;32476;50.002;11.854;2023-04-08T12:07:43;3.93;;;3.17;;
46729;SDS011;32476;50.002;11.854;2023-04-08T12:10:09;4.40;;;3.30;;
46729;SDS011;32476;50.002;11.854;2023-04-08T12:12:36;4.17;;;3.47;;
46729;SDS011;32476;50.002;11.854;2023-04-08T12:15:04;4.30;;;3.30;;
46729;SDS011;32476;50.002;11.854;2023-04-08T12:17:30;5.73;;;3.93;;
46729;SDS011;32476;50.002;11.854;2023-04-08T12:19:56;5.23;;;3.50;;
46729;SDS011;32476;50.002;11.854;2023-04-08T12:22:23;4.67;;;3.40;;
46729;SDS011;32476;50.002;11.854;2023-04-08T12:24:49;4.60;;;3.47;;
46729;SDS011;32476;50.002;11.854;2023-04-08T12:27:15;9.70;;;3.57;;
46729;SDS011;32476;50.002;11.854;2023-04-08T12:29:43;5.00;;;3.37;;
46729;SDS011;32476;50.002;11.854;2023-04-08T12:32:10;5.80;;;3.33;;
46729;SDS011;32476;50.002;11.854;2023-04-08T12:34:36;3.70;;;3.00;;
46729;SDS011;32476;50.002;11.854;2023-04-08T12:37:03;4.80;;;3.40;;
46729;SDS011;32476;50.002;11.854;2023-04-08T12:39:30;6.50;;;3.57;;
46729;SDS011;32476;50.002;11.854;2023-04-08T12:41:56;5.97;;;4.00;;
46729;SDS011;32476;50.002;11.854;2023-04-08T12:44:23;6.00;;;4.30;;
46729;SDS011;32476;50.002;11.854;2023-04-08T12:46:49;4.03;;;3.30;;
46729;SDS011;32476;50.002;11.854;2023-04-08T12:49:15;5.87;;;4.53;;
46729;SDS011;32476;50.002;11.854;2023-04-08T12:51:42;3.37;;;2.70;;
46729;SDS011;32476;50.002;11.854;2023-04-08T12:54:08;5.03;;;3.20;;
46729;SDS011;32476;50.002;11.854;2023-04-08T12:56:34;5.20;;;3.90;;
46729;SDS011;32476;50.002;11.854;2023-04-08T12:59:01;10.67;;;6.33;;
46729;SDS011;32476;50.002;11.854;2023-04-08T13:01:27;5.33;;;3.50;;
46729;SDS011;32476;50.002;11.854;2023-04-08T13:03:54;7.17;;;4.50;;
46729;SDS011;32476;50.002;11.854;2023-04-08T13:06:22;4.43;;;3.10;;
46729;SDS011;32476;50.002;11.854;2023-04-08T13:08:48;11.90;;;7.33;;
46729;SDS011;32476;50.002;11.854;2023-04-08T13:11:14;7.13;;;4.60;;
46729;SDS011;32476;50.002;11.854;2023-04-08T13:13:41;7.33;;;4.23;;
46729;SDS011;32476;50.002;11.854;2023-04-08T13:16:08;8.87;;;5.57;;
46729;SDS011;32476;50.002;11.854;2023-04-08T13:18:34;6.53;;;4.53;;
46729;SDS011;32476;50.002;11.854;2023-04-08T13:21:02;7.77;;;4.93;;
46729;SDS011;32476;50.002;11.854;2023-04-08T13:23:28;6.67;;;4.43;;
46729;SDS011;32476;50.002;11.854;2023-04-08T13:25:54;5.77;;;4.10;;
46729;SDS011;32476;50.002;11.854;2023-04-08T13:28:21;4.43;;;3.60;;
46729;SDS011;32476;50.002;11.854;2023-04-08T13:30:47;5.20;;;3.23;;
46729;SDS011;32476;50.002;11.854;2023-04-08T13:33:13;4.20;;;3.27;;
46729;SDS011;32476;50.002;11.854;2023-04-08T13:35:41;2.87;;;2.40;;
46729;SDS011;32476;50.002;11.854;2023-04-08T13:38:11;2.20;;;1.90;;
46729;SDS011;32476;50.002;11.854;2023-04-08T13:40:37;4.40;;;3.00;;
46729;SDS011;32476;50.002;11.854;2023-04-08T13:43:05;8.83;;;6.30;;
46729;SDS011;32476;50.002;11.854;2023-04-08T13:45:31;5.33;;;4.70;;
46729;SDS011;32476;50.002;11.854;2023-04-08T13:47:57;8.37;;;6.40;;
46729;SDS011;32476;50.002;11.854;2023-04-08T13:50:25;8.17;;;5.63;;
46729;SDS011;32476;50.002;11.854;2023-04-08T13:52:51;10.17;;;6.47;;
46729;SDS011;32476;50.002;11.854;2023-04-08T13:55:17;5.77;;;3.97;;
46729;SDS011;32476;50.002;11.854;2023-04-08T13:57:44;5.93;;;4.23;;
46729;SDS011;32476;50.002;11.854;2023-04-08T14:00:10;7.40;;;4.70;;
46729;SDS011;32476;50.002;11.854;2023-04-08T14:02:37;5.47;;;4.07;;
46729;SDS011;32476;50.002;11.854;2023-04-08T14:05:04;7.90;;;4.40;;
46729;SDS011;32476;50.002;11.854;2023-04-08T14:07:31;7.80;;;5.73;;
46729;SDS011;32476;50.002;11.854;2023-04-08T14:09:57;18.50;;;11.20;;
46729;SDS011;32476;50.002;11.854;2023-04-08T14:12:24;13.63;;;7.53;;
46729;SDS011;32476;50.002;11.854;2023-04-08T14:14:50;11.10;;;7.70;;
46729;SDS011;32476;50.002;11.854;2023-04-08T14:17:16;10.07;;;6.47;;
46729;SDS011;32476;50.002;11.854;2023-04-08T14:19:43;15.23;;;8.83;;
46729;SDS011;32476;50.002;11.854;2023-04-08T14:22:09;13.83;;;7.93;;
46729;SDS011;32476;50.002;11.854;2023-04-08T14:24:35;11.47;;;7.40;;
46729;SDS011;32476;50.002;11.854;2023-04-08T14:27:02;21.80;;;12.83;;
46729;SDS011;32476;50.002;11.854;2023-04-08T14:29:28;14.70;;;8.03;;
46729;SDS011;32476;50.002;11.854;2023-04-08T14:31:54;13.10;;;7.87;;
46729;SDS011;32476;50.002;11.854;2023-04-08T14:34:22;12.03;;;7.50;;
46729;SDS011;32476;50.002;11.854;2023-04-08T14:36:48;15.07;;;9.10;;
46729;SDS011;32476;50.002;11.854;2023-04-08T14:39:13;15.93;;;8.90;;
46729;SDS011;32476;50.002;11.854;2023-04-08T14:41:41;16.27;;;9.87;;
46729;SDS011;32476;50.002;11.854;2023-04-08T14:44:07;31.00;;;18.30;;
46729;SDS011;32476;50.002;11.854;2023-04-08T14:46:32;25.43;;;15.10;;
46729;SDS011;32476;50.002;11.854;2023-04-08T14:49:00;19.50;;;12.30;;